Portada
METAR-TAF:

METAR-TAF

Aeroports :

Trent Lott International Airport

Pascagoula, Mississipí, Estats Units d'Amèrica

latitud: 30-27-49N, longitud: 088-31-55W, altitud: 5 m

Observació

L'informe es va fer fa 57 minuts, a les 14:53 UTC
Vent 6 kt del Nord
Temperatura 31°C
Humitat 55%
Pressió 1018 hPa
Visibilitat: 16.1 km
Cel clar

METAR: KPQL 301453Z 35006KT 10SM CLR 31/21 A3006 RMK AO2 SLP179 T03060206 50003

Hora: 10:50 (15:50 UTC)


TAF: manca

Observacions i pronòstics meteorològics de més de 4000 aeroports (METAR i TAF).

Les estacions disponibles són els punts grocs i vermells al mapa.

Posi el ratolí al punt desitjat per veure el nom de l'estació.

Feu clic per veure les observacions i els pronòstics meteorològics.

Per canviar el mapa: feu clic els botons verds amb una creu de color negre per apropar; al botó verd amb un guió per allunyar la imatge; o en les fletxes verdes per a mapes adjacents.


METAR-TAF: